Time;durP1;ratioP1;P1;durP2;ratioP2;P2;SDS_P1;SDS_P2;PMS_P1;PMS_P2;Temp;Humidity;BMP_temperature;BMP_pressure;BME280_temperature;BME280_humidity;BME280_pressure;Samples;Min_cycle;Max_cycle;Signal;HPM_P1;HPM_P2
2023/02/21 02:15:11;;;;;;;3.13;1.50;;;6.20;99.90;;;;;;5072897;28;20927;-79
2023/02/21 02:17:51;;;;;;;0.63;0.63;;;6.20;99.90;;;;;;5073033;28;20825;-79
2023/02/21 02:20:49;;;;;;;0.33;0.30;;;6.20;99.90;;;;;;5073060;28;20434;-80
2023/02/21 02:23:49;;;;;;;0.30;0.30;;;6.20;99.90;;;;;;5072962;28;20479;-79
2023/02/21 02:26:55;;;;;;;0.40;0.40;;;6.20;99.90;;;;;;5076889;28;20430;-79
2023/02/21 02:29:44;;;;;;;0.40;0.30;;;6.20;99.90;;;;;;5059167;28;20917;-79
2023/02/21 02:32:38;;;;;;;0.40;0.37;;;6.30;99.90;;;;;;5076477;28;20959;-79
2023/02/21 02:35:12;;;;;;;0.30;0.30;;;6.30;99.90;;;;;;5076817;28;20466;-79
2023/02/21 02:37:49;;;;;;;0.80;0.40;;;6.20;99.90;;;;;;5076117;28;20853;-79
2023/02/21 02:40:25;;;;;;;1.27;0.40;;;6.20;99.90;;;;;;5076624;28;20428;-80
2023/02/21 02:43:03;;;;;;;0.30;0.30;;;6.20;99.90;;;;;;5076244;28;20468;-79
2023/02/21 02:45:34;;;;;;;0.30;0.20;;;6.10;99.90;;;;;;5076285;28;20429;-79
2023/02/21 02:48:08;;;;;;;0.40;0.30;;;6.10;99.90;;;;;;5076432;28;20670;-79
2023/02/21 02:50:37;;;;;;;0.50;0.40;;;6.10;99.90;;;;;;5076483;28;20867;-79
2023/02/21 02:53:04;;;;;;;1.13;0.40;;;6.10;99.90;;;;;;5076407;28;20467;-79
2023/02/21 02:55:37;;;;;;;0.40;0.30;;;6.10;99.90;;;;;;5076360;28;20445;-79
2023/02/21 02:58:05;;;;;;;0.70;0.70;;;6.10;99.90;;;;;;5076218;28;20461;-79
2023/02/21 03:00:34;;;;;;;0.40;0.40;;;6.10;99.90;;;;;;5076227;28;20445;-79
2023/02/21 03:03:18;;;;;;;1.17;0.40;;;6.10;99.90;;;;;;5076170;28;20485;-79
2023/02/21 03:06:00;;;;;;;1.00;0.40;;;6.10;99.90;;;;;;5075861;28;20437;-80
2023/02/21 03:08:38;;;;;;;0.40;0.30;;;6.10;99.90;;;;;;5076547;28;20465;-79
2023/02/21 03:11:11;;;;;;;0.60;0.60;;;6.10;99.90;;;;;;5076101;28;20437;-79
2023/02/21 03:13:44;;;;;;;0.30;0.30;;;6.10;99.90;;;;;;5076062;28;20429;-79
2023/02/21 03:16:20;;;;;;;0.37;0.30;;;6.10;99.90;;;;;;5075949;28;20430;-79
2023/02/21 03:18:50;;;;;;;0.47;0.47;;;6.00;99.90;;;;;;5075633;28;20441;-79
2023/02/21 03:21:22;;;;;;;0.40;0.40;;;6.00;99.90;;;;;;5075929;28;20426;-79
2023/02/21 03:23:53;;;;;;;3.70;0.80;;;6.00;99.90;;;;;;5075773;28;20469;-79
2023/02/21 03:26:20;;;;;;;0.53;0.53;;;6.00;99.90;;;;;;5075737;28;20454;-79
2023/02/21 03:28:48;;;;;;;0.30;0.30;;;6.00;99.90;;;;;;5075730;28;20456;-79
2023/02/21 03:31:19;;;;;;;2.73;0.40;;;5.90;99.90;;;;;;5075392;28;20445;-79
2023/02/21 03:33:46;;;;;;;0.30;0.30;;;5.90;99.90;;;;;;5075721;28;20449;-79
2023/02/21 03:36:14;;;;;;;0.40;0.33;;;5.90;99.90;;;;;;5074633;28;20449;-79
2023/02/21 03:38:42;;;;;;;0.40;0.30;;;5.80;99.90;;;;;;5075140;28;20481;-79
2023/02/21 03:41:10;;;;;;;0.40;0.40;;;5.80;99.90;;;;;;5075205;28;20448;-79
2023/02/21 03:43:37;;;;;;;1.13;0.70;;;5.80;99.90;;;;;;5075404;28;20488;-79
2023/02/21 03:46:04;;;;;;;0.40;0.30;;;5.70;99.90;;;;;;5075381;28;20799;-79
2023/02/21 03:48:31;;;;;;;0.40;0.30;;;5.80;99.90;;;;;;5075310;28;20461;-79
2023/02/21 03:50:57;;;;;;;0.37;0.37;;;5.70;99.90;;;;;;5074984;28;20957;-79
2023/02/21 03:53:24;;;;;;;0.43;0.40;;;5.70;99.90;;;;;;5075257;28;20444;-79
2023/02/21 03:55:52;;;;;;;0.67;0.67;;;5.70;99.90;;;;;;5075234;28;20456;-79
2023/02/21 03:58:19;;;;;;;0.40;0.30;;;5.70;99.90;;;;;;5075113;28;20465;-79
2023/02/21 04:00:46;;;;;;;0.63;0.63;;;5.60;99.90;;;;;;5075403;28;20446;-79
2023/02/21 04:03:12;;;;;;;0.33;0.33;;;5.60;99.90;;;;;;5074965;28;20849;-79
2023/02/21 04:05:39;;;;;;;0.33;0.30;;;5.60;99.90;;;;;;5075034;28;20452;-79
2023/02/21 04:08:06;;;;;;;0.40;0.30;;;5.60;99.90;;;;;;5074893;28;20465;-79
2023/02/21 04:10:33;;;;;;;1.00;0.60;;;5.50;99.90;;;;;;5074940;28;20472;-79
2023/02/21 04:13:01;;;;;;;0.40;0.40;;;5.40;99.90;;;;;;5075682;28;20446;-79
2023/02/21 04:15:28;;;;;;;0.40;0.40;;;5.30;99.90;;;;;;5074523;28;20449;-79
2023/02/21 04:17:54;;;;;;;1.47;0.57;;;5.10;99.90;;;;;;5074711;28;20545;-79
2023/02/21 04:20:21;;;;;;;0.30;0.30;;;5.00;99.90;;;;;;5074747;28;20448;-79
2023/02/21 04:22:48;;;;;;;0.40;0.30;;;4.90;99.90;;;;;;5074652;28;20448;-79
2023/02/21 04:25:15;;;;;;;0.60;0.30;;;4.80;99.90;;;;;;5074585;28;20856;-79
2023/02/21 04:27:41;;;;;;;2.20;0.70;;;4.80;99.90;;;;;;5074757;28;20469;-79
2023/02/21 04:30:11;;;;;;;0.70;0.70;;;4.80;99.90;;;;;;5074504;28;20450;-79
2023/02/21 04:32:38;;;;;;;0.30;0.30;;;4.70;99.90;;;;;;5074178;28;20456;-79
2023/02/21 04:35:05;;;;;;;1.23;0.40;;;4.70;99.90;;;;;;5074463;28;20438;-79
2023/02/21 04:37:32;;;;;;;0.40;0.30;;;4.70;99.90;;;;;;5074121;28;20477;-79
2023/02/21 04:39:58;;;;;;;0.37;0.37;;;4.70;99.90;;;;;;5074024;28;20977;-79
2023/02/21 04:42:25;;;;;;;0.30;0.30;;;4.70;99.90;;;;;;5074263;28;20446;-79
2023/02/21 04:44:52;;;;;;;0.37;0.33;;;4.70;99.90;;;;;;5074200;28;20477;-79
2023/02/21 04:47:20;;;;;;;0.50;0.50;;;4.70;99.90;;;;;;5074114;28;20477;-76
2023/02/21 04:49:50;;;;;;;0.67;0.30;;;4.80;99.90;;;;;;5074178;28;20441;-76
2023/02/21 04:52:19;;;;;;;1.17;0.53;;;4.80;99.90;;;;;;5073773;28;20503;-76
2023/02/21 04:54:46;;;;;;;0.50;0.50;;;4.80;99.90;;;;;;5074233;28;20442;-76
2023/02/21 04:57:12;;;;;;;0.40;0.40;;;4.70;99.90;;;;;;5073659;28;21062;-76
2023/02/21 04:59:39;;;;;;;0.40;0.30;;;4.70;99.90;;;;;;5073998;28;20450;-76
2023/02/21 05:02:07;;;;;;;0.30;0.20;;;4.70;99.90;;;;;;5073954;28;20452;-76
2023/02/21 05:04:35;;;;;;;0.40;0.40;;;4.70;99.90;;;;;;5073818;28;20477;-76
2023/02/21 05:07:03;;;;;;;0.37;0.37;;;4.70;99.90;;;;;;5073809;28;20470;-76
2023/02/21 05:09:29;;;;;;;0.37;0.30;;;4.70;99.90;;;;;;5073799;28;20449;-76
2023/02/21 05:11:56;;;;;;;6.50;1.87;;;4.60;99.90;;;;;;5074041;28;20438;-76
2023/02/21 05:14:23;;;;;;;0.30;0.20;;;4.60;99.90;;;;;;5073740;28;20444;-76
2023/02/21 05:16:50;;;;;;;0.50;0.40;;;4.60;99.90;;;;;;5073628;28;20464;-76
2023/02/21 05:19:26;;;;;;;0.43;0.43;;;4.50;99.90;;;;;;5073663;28;20445;-75
2023/02/21 05:21:55;;;;;;;0.30;0.30;;;4.50;99.90;;;;;;5073670;28;20445;-76
2023/02/21 05:24:22;;;;;;;0.40;0.30;;;4.50;99.90;;;;;;5073484;28;20546;-76
2023/02/21 05:26:49;;;;;;;0.70;0.50;;;4.50;99.90;;;;;;5073490;28;20473;-76
2023/02/21 05:29:17;;;;;;;6.70;0.70;;;4.40;99.90;;;;;;5073503;28;20483;-76
2023/02/21 05:31:44;;;;;;;0.50;0.40;;;4.40;99.90;;;;;;5073504;28;20544;-76
2023/02/21 05:34:11;;;;;;;0.70;0.50;;;4.40;99.90;;;;;;5073450;28;20438;-76
2023/02/21 05:36:37;;;;;;;0.30;0.30;;;4.40;99.90;;;;;;5073543;28;20476;-76
2023/02/21 05:39:07;;;;;;;0.40;0.30;;;4.40;99.90;;;;;;5073379;28;20449;-76
2023/02/21 05:41:34;;;;;;;0.30;0.30;;;4.40;99.90;;;;;;5073285;28;20438;-76
2023/02/21 05:44:02;;;;;;;2.87;0.67;;;4.30;99.90;;;;;;5074061;28;20513;-76
2023/02/21 05:46:32;;;;;;;0.40;0.37;;;4.30;99.90;;;;;;5072942;28;20445;-76
2023/02/21 05:49:00;;;;;;;0.40;0.30;;;4.30;99.90;;;;;;5073316;28;20490;-76
2023/02/21 05:51:27;;;;;;;0.90;0.50;;;4.30;99.90;;;;;;5073257;28;20456;-76
2023/02/21 05:53:54;;;;;;;0.30;0.30;;;4.30;99.90;;;;;;5072961;28;20837;-76
2023/02/21 05:56:23;;;;;;;0.60;0.40;;;4.20;99.90;;;;;;5072831;28;20446;-76
2023/02/21 05:58:49;;;;;;;0.60;0.33;;;4.20;99.90;;;;;;5074964;28;20472;-76
2023/02/21 06:01:16;;;;;;;0.30;0.30;;;4.30;99.90;;;;;;5079527;28;20453;-76
2023/02/21 06:03:43;;;;;;;1.03;0.30;;;4.30;99.90;;;;;;5079726;28;20449;-76
2023/02/21 06:06:10;;;;;;;0.60;0.37;;;4.30;99.90;;;;;;5079740;28;20494;-76
2023/02/21 06:08:43;;;;;;;0.70;0.37;;;4.30;99.90;;;;;;5079784;28;20448;-76
2023/02/21 06:11:10;;;;;;;0.40;0.30;;;4.40;99.90;;;;;;5079511;28;20456;-76
2023/02/21 06:13:38;;;;;;;0.57;0.57;;;4.40;99.90;;;;;;5079717;28;20515;-76
2023/02/21 06:16:06;;;;;;;1.33;0.70;;;4.40;99.90;;;;;;5079974;28;20819;-76
2023/02/21 06:18:33;;;;;;;0.40;0.33;;;4.40;99.90;;;;;;5079641;28;20461;-76
2023/02/21 06:20:59;;;;;;;2.53;0.80;;;4.40;99.90;;;;;;5079346;28;20456;-76
2023/02/21 06:23:26;;;;;;;0.33;0.33;;;4.40;99.90;;;;;;5079617;28;20446;-76
2023/02/21 06:25:53;;;;;;;0.40;0.40;;;4.40;99.90;;;;;;5079581;28;20508;-76
2023/02/21 06:28:20;;;;;;;0.80;0.40;;;4.30;99.90;;;;;;5079563;28;20476;-76
2023/02/21 06:30:48;;;;;;;0.70;0.40;;;4.30;99.90;;;;;;5079893;28;20437;-76
2023/02/21 06:33:14;;;;;;;0.43;0.43;;;4.30;99.90;;;;;;5079608;28;20452;-76
2023/02/21 06:35:41;;;;;;;0.30;0.30;;;4.30;99.90;;;;;;5079548;28;20452;-76
2023/02/21 06:38:08;;;;;;;0.40;0.30;;;4.40;99.90;;;;;;5079176;28;20602;-76
2023/02/21 06:40:34;;;;;;;0.40;0.40;;;4.40;99.90;;;;;;5079142;28;20971;-76
2023/02/21 06:43:01;;;;;;;2.10;0.40;;;4.30;99.90;;;;;;5079510;28;20452;-76
2023/02/21 06:45:28;;;;;;;0.30;0.30;;;4.30;99.90;;;;;;5079172;28;20477;-76
2023/02/21 06:47:56;;;;;;;0.40;0.40;;;4.30;99.90;;;;;;5079341;28;20468;-76
2023/02/21 06:50:24;;;;;;;0.60;0.47;;;4.40;99.90;;;;;;5079374;28;20441;-76
2023/02/21 06:52:51;;;;;;;0.43;0.40;;;4.40;99.90;;;;;;5079330;28;20516;-76
2023/02/21 06:55:20;;;;;;;0.30;0.30;;;4.40;99.90;;;;;;5079072;28;20441;-76
2023/02/21 06:57:47;;;;;;;3.03;0.67;;;4.50;99.90;;;;;;5079199;28;20500;-76
2023/02/21 07:00:15;;;;;;;3.30;0.50;;;4.60;99.90;;;;;;5078970;28;20449;-76
2023/02/21 07:02:42;;;;;;;0.30;0.30;;;4.70;99.90;;;;;;5079210;28;20503;-76
2023/02/21 07:05:11;;;;;;;0.40;0.40;;;4.70;99.90;;;;;;5079124;28;20506;-76
2023/02/21 07:07:37;;;;;;;0.50;0.40;;;4.80;99.90;;;;;;5079089;28;20477;-76
2023/02/21 07:10:05;;;;;;;0.60;0.40;;;4.90;99.90;;;;;;5077898;28;20949;-76
2023/02/21 07:12:32;;;;;;;0.77;0.50;;;5.00;99.90;;;;;;5075305;28;20451;-76
2023/02/21 07:14:58;;;;;;;0.40;0.33;;;5.10;99.90;;;;;;5075698;28;20937;-76
2023/02/21 07:17:25;;;;;;;2.20;0.50;;;5.20;99.90;;;;;;5075567;28;20996;-76
2023/02/21 07:19:52;;;;;;;1.07;0.97;;;5.30;99.90;;;;;;5075908;28;20456;-76
2023/02/21 07:22:24;;;;;;;3.90;0.60;;;5.20;99.90;;;;;;5075599;28;20429;-76
2023/02/21 07:24:51;;;;;;;7.30;0.60;;;5.20;99.90;;;;;;5075471;28;20470;-76
2023/02/21 07:27:18;;;;;;;1.03;0.40;;;5.10;99.90;;;;;;5076187;28;20865;-75
2023/02/21 07:29:47;;;;;;;2.43;0.70;;;5.10;99.90;;;;;;5075389;28;20442;-76
2023/02/21 07:32:14;;;;;;;2.10;0.93;;;5.00;99.90;;;;;;5075724;28;20472;-76
2023/02/21 07:34:41;;;;;;;0.40;0.30;;;5.00;99.90;;;;;;5075624;28;20453;-76
2023/02/21 07:37:07;;;;;;;0.60;0.37;;;5.00;99.90;;;;;;5075127;28;20920;-76
2023/02/21 07:39:36;;;;;;;1.70;0.40;;;5.10;99.90;;;;;;5075288;28;20434;-76
2023/02/21 07:42:03;;;;;;;2.50;0.40;;;5.10;99.90;;;;;;5076306;28;20485;-76
2023/02/21 07:44:30;;;;;;;0.80;0.53;;;5.20;99.90;;;;;;5075056;28;20484;-76
2023/02/21 07:46:57;;;;;;;0.83;0.33;;;5.30;99.90;;;;;;5075044;28;21007;-75
2023/02/21 07:49:24;;;;;;;0.30;0.30;;;5.30;99.90;;;;;;5075426;28;20441;-75
2023/02/21 07:51:50;;;;;;;0.40;0.30;;;5.40;99.90;;;;;;5074959;28;20945;-76
2023/02/21 07:54:18;;;;;;;1.07;0.40;;;5.50;99.90;;;;;;5075184;28;20941;-75
2023/02/21 07:56:47;;;;;;;0.60;0.50;;;5.60;99.90;;;;;;5075366;28;20473;-76
2023/02/21 07:59:14;;;;;;;0.50;0.50;;;5.70;99.90;;;;;;5075414;28;20441;-76
2023/02/21 08:01:41;;;;;;;0.60;0.53;;;5.80;99.90;;;;;;5075124;28;20445;-76
2023/02/21 08:04:08;;;;;;;0.30;0.30;;;5.90;99.90;;;;;;5074670;28;20937;-76
2023/02/21 08:06:35;;;;;;;10.07;1.07;;;6.00;99.90;;;;;;5074935;28;20815;-75
2023/02/21 08:09:02;;;;;;;0.67;0.43;;;6.10;99.90;;;;;;5074966;28;20450;-75
2023/02/21 08:11:29;;;;;;;0.30;0.30;;;6.20;99.90;;;;;;5074897;28;20449;-76
2023/02/21 08:13:57;;;;;;;0.40;0.40;;;6.30;99.90;;;;;;5074938;28;20639;-76
2023/02/21 08:16:24;;;;;;;0.60;0.60;;;6.40;99.90;;;;;;5074508;28;20958;-76
2023/02/21 08:18:50;;;;;;;0.80;0.80;;;6.50;99.90;;;;;;5074791;28;20445;-75
2023/02/21 08:21:17;;;;;;;0.97;0.87;;;6.50;99.90;;;;;;5074771;28;20456;-76
2023/02/21 08:23:44;;;;;;;1.13;0.57;;;6.60;99.90;;;;;;5074394;28;20455;-76
2023/02/21 08:26:11;;;;;;;1.47;0.90;;;6.70;99.90;;;;;;5074581;28;20480;-76
2023/02/21 08:28:38;;;;;;;0.50;0.50;;;6.70;99.90;;;;;;5074246;28;20442;-75
2023/02/21 08:31:07;;;;;;;1.37;1.00;;;6.80;99.90;;;;;;5074583;28;20447;-75
2023/02/21 08:33:33;;;;;;;0.70;0.60;;;6.80;99.90;;;;;;5074447;28;20453;-75
2023/02/21 08:36:00;;;;;;;0.87;0.60;;;6.90;99.90;;;;;;5074625;28;20445;-75
2023/02/21 08:38:27;;;;;;;0.53;0.53;;;7.10;99.90;;;;;;5073972;28;20486;-76
2023/02/21 08:40:54;;;;;;;1.93;0.60;;;7.20;99.90;;;;;;5074287;28;20811;-75
2023/02/21 08:43:21;;;;;;;0.50;0.50;;;7.30;99.90;;;;;;5074251;28;20795;-75
2023/02/21 08:45:47;;;;;;;0.40;0.30;;;7.50;99.90;;;;;;5074111;28;20492;-75
2023/02/21 08:48:15;;;;;;;0.43;0.43;;;7.70;99.90;;;;;;5073862;28;20817;-75
2023/02/21 08:50:42;;;;;;;1.07;0.70;;;7.90;99.90;;;;;;5074166;28;20441;-78
2023/02/21 08:53:11;;;;;;;4.43;0.87;;;8.20;99.90;;;;;;5074472;28;20449;-79
2023/02/21 08:55:38;;;;;;;0.50;0.50;;;8.50;99.90;;;;;;5074020;28;20445;-79
2023/02/21 08:58:05;;;;;;;0.70;0.70;;;8.70;99.90;;;;;;5073934;28;20470;-78
2023/02/21 09:00:32;;;;;;;1.63;0.50;;;9.00;99.90;;;;;;5073624;28;20449;-78
2023/02/21 09:02:59;;;;;;;1.00;0.80;;;9.40;99.90;;;;;;5074214;28;20442;-78
2023/02/21 09:05:29;;;;;;;0.40;0.40;;;9.70;99.90;;;;;;5073775;28;20473;-78
2023/02/21 09:07:58;;;;;;;1.13;0.50;;;10.00;99.90;;;;;;5073822;28;20460;-78
2023/02/21 09:10:26;;;;;;;1.00;0.70;;;10.50;99.90;;;;;;5073582;28;20495;-79
2023/02/21 09:12:52;;;;;;;1.00;1.00;;;11.10;99.90;;;;;;5073739;28;20453;-78
2023/02/21 09:15:19;;;;;;;0.60;0.50;;;12.00;99.90;;;;;;5073380;28;20438;-79
2023/02/21 09:17:48;;;;;;;0.50;0.50;;;13.10;99.90;;;;;;5073607;28;20477;-79
2023/02/21 09:20:18;;;;;;;1.60;0.43;;;14.40;99.90;;;;;;5073772;28;20469;-79
2023/02/21 09:22:47;;;;;;;0.50;0.40;;;15.80;99.90;;;;;;5073818;28;20456;-79
2023/02/21 09:25:14;;;;;;;0.50;0.40;;;17.00;99.90;;;;;;5073653;28;20885;-79
2023/02/21 09:27:41;;;;;;;0.50;0.50;;;18.20;95.00;;;;;;5073217;28;21003;-79
2023/02/21 09:30:11;;;;;;;1.23;0.70;;;19.40;90.40;;;;;;5073160;28;20960;-79
2023/02/21 09:32:39;;;;;;;0.50;0.40;;;20.70;84.70;;;;;;5073072;28;20956;-79
2023/02/21 09:35:06;;;;;;;3.50;0.80;;;22.00;74.90;;;;;;5072724;28;20512;-79
2023/02/21 09:37:33;;;;;;;1.53;0.67;;;23.30;69.70;;;;;;5073111;28;20487;-78
2023/02/21 09:40:01;;;;;;;0.77;0.60;;;24.50;62.10;;;;;;5073675;28;20445;-79
2023/02/21 09:42:30;;;;;;;2.70;0.67;;;25.40;58.90;;;;;;5073457;28;20430;-79
2023/02/21 09:44:57;;;;;;;1.48;0.80;;;26.20;55.90;;;;;;5073410;28;20198;-79
2023/02/21 09:47:28;;;;;;;1.27;0.75;;;26.50;53.00;;;;;;5073171;28;20222;-79
2023/02/21 09:50:01;;;;;;;6.38;0.80;;;26.30;52.00;;;;;;5073371;28;20191;-79
2023/02/21 09:52:32;;;;;;;1.00;0.90;;;26.20;51.60;;;;;;5073303;28;20183;-79
2023/02/21 09:55:05;;;;;;;0.73;0.73;;;26.20;49.90;;;;;;5073269;28;20191;-79
2023/02/21 09:57:31;;;;;;;0.90;0.80;;;25.80;50.10;;;;;;5072856;28;20638;-79
2023/02/21 09:59:58;;;;;;;1.67;0.70;;;25.80;50.40;;;;;;5073180;28;20214;-79
2023/02/21 10:02:40;;;;;;;0.65;0.65;;;26.30;49.60;;;;;;5073180;28;20249;-79
2023/02/21 10:05:20;;;;;;;1.00;0.73;;;26.60;49.30;;;;;;5072845;28;20638;-79
2023/02/21 10:07:54;;;;;;;1.10;0.85;;;26.90;47.90;;;;;;5073335;28;20701;-79
2023/02/21 10:10:30;;;;;;;1.92;0.60;;;26.50;47.30;;;;;;5072859;28;20193;-79
2023/02/21 10:13:05;;;;;;;1.75;0.75;;;25.90;48.90;;;;;;5072772;28;20630;-80
2023/02/21 10:15:44;;;;;;;2.53;0.60;;;25.20;49.50;;;;;;5073255;28;20178;-80
2023/02/21 10:18:25;;;;;;;1.40;0.70;;;24.60;49.40;;;;;;5073064;28;20225;-80
2023/02/21 10:20:56;;;;;;;0.93;0.57;;;24.10;50.10;;;;;;5073012;28;20191;-80
2023/02/21 10:23:28;;;;;;;0.50;0.40;;;23.60;52.10;;;;;;5073036;28;20187;-80
2023/02/21 10:26:02;;;;;;;0.68;0.50;;;23.50;51.00;;;;;;5072557;28;20687;-80
2023/02/21 10:28:29;;;;;;;1.35;0.68;;;23.80;49.10;;;;;;5072609;28;20226;-80
2023/02/21 10:31:00;;;;;;;2.90;0.57;;;24.50;48.50;;;;;;5072964;28;20209;-79
2023/02/21 10:33:28;;;;;;;0.40;0.40;;;25.50;46.90;;;;;;5072945;28;20191;-80
2023/02/21 10:35:55;;;;;;;0.45;0.43;;;26.90;44.60;;;;;;5072891;28;20655;-79
2023/02/21 10:38:25;;;;;;;0.52;0.40;;;28.20;43.00;;;;;;5072465;28;20241;-80
2023/02/21 10:40:55;;;;;;;0.68;0.40;;;29.40;41.60;;;;;;5072723;28;20206;-80
2023/02/21 10:43:28;;;;;;;0.60;0.40;;;30.00;40.00;;;;;;5072883;28;20569;-80
2023/02/21 10:45:59;;;;;;;0.40;0.40;;;30.40;38.80;;;;;;5074823;28;20210;-80
2023/02/21 10:48:32;;;;;;;0.50;0.50;;;31.00;38.30;;;;;;5076439;28;20223;-80
2023/02/21 10:51:07;;;;;;;0.50;0.40;;;31.60;37.40;;;;;;5076453;28;20191;-80
2023/02/21 10:53:36;;;;;;;0.50;0.47;;;31.90;36.20;;;;;;5076406;28;20183;-80
2023/02/21 10:56:27;;;;;;;0.50;0.50;;;31.80;35.20;;;;;;5076475;28;20256;-80
2023/02/21 10:58:59;;;;;;;0.68;0.50;;;31.80;35.00;;;;;;5076396;28;20650;-79
2023/02/21 11:01:47;;;;;;;0.40;0.40;;;31.60;34.90;;;;;;5076524;28;20184;-80
2023/02/21 11:04:27;;;;;;;0.70;0.57;;;31.20;35.60;;;;;;5071789;28;20229;-79
2023/02/21 11:06:56;;;;;;;0.40;0.40;;;31.10;35.30;;;;;;5076358;28;20257;-80
2023/02/21 11:09:36;;;;;;;0.40;0.40;;;30.60;34.90;;;;;;5076587;28;20194;-80
2023/02/21 11:12:16;;;;;;;0.40;0.30;;;30.10;33.40;;;;;;5076500;28;20190;-80
2023/02/21 11:14:45;;;;;;;0.70;0.40;;;28.90;34.70;;;;;;5076257;28;20221;-80
2023/02/21 11:17:18;;;;;;;0.40;0.40;;;27.50;36.00;;;;;;5076176;28;20218;-80
2023/02/21 11:19:51;;;;;;;0.40;0.40;;;25.90;38.40;;;;;;5076241;28;20190;-80
2023/02/21 11:22:21;;;;;;;0.50;0.40;;;24.20;37.90;;;;;;5076242;28;20197;-79
2023/02/21 11:25:00;;;;;;;0.43;0.40;;;22.40;40.90;;;;;;5076316;28;20198;-80
2023/02/21 11:27:29;;;;;;;0.40;0.30;;;21.00;43.40;;;;;;5076099;28;20222;-79
2023/02/21 11:29:58;;;;;;;0.40;0.30;;;20.20;44.00;;;;;;5076111;28;20202;-79
2023/02/21 11:32:33;;;;;;;0.30;0.30;;;19.50;44.70;;;;;;5076191;28;20445;-79
2023/02/21 11:35:06;;;;;;;0.40;0.40;;;18.90;45.90;;;;;;5075769;28;20449;-80
2023/02/21 11:37:33;;;;;;;0.40;0.30;;;18.50;47.00;;;;;;5075429;28;20485;-79
2023/02/21 11:40:00;;;;;;;0.50;0.40;;;18.20;47.80;;;;;;5075735;28;20449;-79
2023/02/21 11:42:30;;;;;;;0.60;0.30;;;17.90;48.30;;;;;;5075535;28;20461;-79
2023/02/21 11:45:22;;;;;;;0.30;0.30;;;17.70;48.60;;;;;;5075596;28;20446;-79
2023/02/21 11:47:56;;;;;;;0.30;0.30;;;17.50;48.20;;;;;;5075713;28;20465;-79
2023/02/21 11:50:26;;;;;;;0.30;0.30;;;17.40;48.30;;;;;;5075250;28;20910;-79
2023/02/21 11:53:01;;;;;;;0.40;0.40;;;17.40;48.90;;;;;;5075480;28;20468;-79
2023/02/21 11:55:28;;;;;;;0.47;0.30;;;17.50;49.20;;;;;;5075519;28;20433;-79
2023/02/21 11:58:11;;;;;;;0.37;0.30;;;17.40;48.30;;;;;;5074610;28;20469;-79
2023/02/21 12:01:00;;;;;;;0.33;0.30;;;17.40;48.00;;;;;;5075376;28;20441;-79
2023/02/21 12:03:51;;;;;;;0.30;0.30;;;17.30;49.40;;;;;;5075466;28;20441;-80
2023/02/21 12:06:27;;;;;;;0.40;0.30;;;17.20;49.00;;;;;;5075583;28;20474;-80
2023/02/21 12:08:59;;;;;;;0.30;0.30;;;17.20;49.70;;;;;;5074811;28;20481;-79
2023/02/21 12:11:59;;;;;;;0.90;0.40;;;17.10;50.30;;;;;;5075135;28;20475;-80
2023/02/21 12:14:40;;;;;;;0.40;0.30;;;17.10;51.10;;;;;;5075197;28;20805;-79
2023/02/21 12:17:26;;;;;;;0.40;0.30;;;17.00;49.70;;;;;;5075020;28;20457;-79
2023/02/21 12:20:09;;;;;;;0.30;0.30;;;16.90;49.90;;;;;;5075144;28;20430;-79
2023/02/21 12:22:55;;;;;;;0.40;0.37;;;16.80;50.10;;;;;;5075029;28;20434;-79
2023/02/21 12:25:29;;;;;;;0.30;0.20;;;16.70;50.20;;;;;;5074661;28;20421;-79
2023/02/21 12:28:04;;;;;;;0.40;0.30;;;16.50;50.40;;;;;;5074678;28;20465;-79
2023/02/21 12:30:43;;;;;;;0.40;0.30;;;16.30;51.10;;;;;;5074676;28;20429;-79
2023/02/21 12:33:25;;;;;;;0.40;0.30;;;16.20;51.50;;;;;;5074748;28;20432;-79
2023/02/21 12:36:14;;;;;;;1.13;0.30;;;16.10;51.50;;;;;;5074561;28;20430;-79
2023/02/21 12:38:49;;;;;;;0.40;0.30;;;16.00;51.60;;;;;;5074249;28;20473;-79
2023/02/21 12:41:40;;;;;;;0.30;0.30;;;15.90;52.10;;;;;;5074730;28;20425;-79
2023/02/21 12:44:13;;;;;;;1.43;0.30;;;15.80;52.10;;;;;;5074262;28;20450;-79
2023/02/21 12:46:43;;;;;;;0.40;0.40;;;15.70;52.20;;;;;;5074570;28;20485;-79
2023/02/21 12:49:18;;;;;;;0.40;0.30;;;15.60;52.10;;;;;;5074284;28;20430;-79
2023/02/21 12:51:49;;;;;;;0.40;0.30;;;15.50;53.20;;;;;;5074258;28;20434;-79
2023/02/21 12:54:21;;;;;;;1.13;0.40;;;15.40;53.40;;;;;;5074776;28;20447;-79
2023/02/21 12:56:53;;;;;;;0.40;0.30;;;15.30;53.50;;;;;;5073907;28;20848;-79
2023/02/21 12:59:26;;;;;;;0.30;0.30;;;15.30;53.40;;;;;;5074185;28;20430;-79
2023/02/21 13:01:56;;;;;;;0.40;0.30;;;15.20;53.90;;;;;;5074156;28;20437;-79
2023/02/21 13:04:32;;;;;;;0.40;0.30;;;15.10;55.10;;;;;;5074349;28;20948;-79
2023/02/21 13:07:05;;;;;;;0.30;0.30;;;15.10;54.40;;;;;;5074172;28;20481;-79
2023/02/21 13:09:36;;;;;;;0.50;0.30;;;15.10;54.10;;;;;;5073409;28;20441;-84
2023/02/21 13:12:09;;;;;;;0.30;0.30;;;15.10;55.40;;;;;;5074701;28;20430;-79
2023/02/21 13:14:42;;;;;;;0.30;0.20;;;15.00;53.90;;;;;;5073814;28;20414;-80
2023/02/21 13:17:12;;;;;;;0.40;0.30;;;15.10;54.60;;;;;;5073847;28;20462;-80
2023/02/21 13:19:45;;;;;;;0.50;0.30;;;15.00;55.40;;;;;;5073804;28;20441;-80
2023/02/21 13:22:49;;;;;;;0.57;0.33;;;15.10;54.70;;;;;;5073499;28;20441;-80
2023/02/21 13:25:24;;;;;;;0.30;0.30;;;15.00;55.00;;;;;;5073759;28;20453;-80
2023/02/21 13:27:56;;;;;;;0.40;0.30;;;15.00;55.50;;;;;;5073575;28;20488;-80
2023/02/21 13:30:27;;;;;;;0.30;0.20;;;14.90;56.00;;;;;;5073659;28;20453;-78
2023/02/21 13:32:56;;;;;;;0.50;0.30;;;14.90;56.30;;;;;;5073647;28;20446;-77
2023/02/21 13:35:30;;;;;;;0.50;0.50;;;14.90;55.70;;;;;;5073806;28;20495;-77
2023/02/21 13:37:59;;;;;;;0.33;0.30;;;14.80;56.00;;;;;;5073423;28;20499;-77
2023/02/21 13:40:34;;;;;;;0.50;0.30;;;14.80;57.40;;;;;;5073562;28;20441;-80
2023/02/21 13:43:04;;;;;;;0.30;0.30;;;14.80;56.70;;;;;;5073560;28;20440;-80
2023/02/21 13:45:31;;;;;;;0.30;0.30;;;14.80;57.00;;;;;;5073586;28;20453;-80
2023/02/21 13:48:26;;;;;;;0.40;0.30;;;14.80;56.50;;;;;;5073319;28;20519;-79
2023/02/21 13:50:56;;;;;;;0.30;0.30;;;14.80;56.50;;;;;;5073390;28;20433;-80
2023/02/21 13:53:25;;;;;;;0.40;0.27;;;14.80;57.20;;;;;;5073419;28;20445;-80
2023/02/21 13:56:16;;;;;;;0.30;0.20;;;14.70;57.40;;;;;;5073582;28;20453;-80
2023/02/21 13:58:44;;;;;;;0.40;0.30;;;14.70;59.20;;;;;;5073401;28;20430;-77
2023/02/21 14:01:41;;;;;;;0.40;0.40;;;14.60;58.40;;;;;;5073352;28;20433;-78
2023/02/21 14:05:00;;;;;;;0.30;0.30;;;14.50;56.90;;;;;;5073619;28;20434;-78
2023/02/21 14:08:03;;;;;;;0.40;0.30;;;14.50;57.40;;;;;;5073168;28;20480;-77
2023/02/21 14:10:38;;;;;;;0.30;0.20;;;14.60;56.90;;;;;;5063395;28;20453;-77
2023/02/21 14:13:17;;;;;;;0.30;0.20;;;14.70;56.50;;;;;;5073572;28;20438;-78
2023/02/21 14:15:46;;;;;;;0.60;0.43;;;14.80;56.00;;;;;;5073206;28;20437;-78
2023/02/21 14:18:27;;;;;;;0.40;0.30;;;14.80;55.80;;;;;;5073379;28;20492;-77
2023/02/21 14:20:56;;;;;;;0.40;0.30;;;14.90;55.80;;;;;;5075111;28;20904;-77
2023/02/21 14:23:38;;;;;;;0.30;0.30;;;14.90;55.70;;;;;;5076915;28;20456;-78
2023/02/21 14:26:05;;;;;;;0.40;0.40;;;14.90;55.70;;;;;;5077199;28;20436;-78
2023/02/21 14:29:01;;;;;;;0.30;0.30;;;14.80;55.70;;;;;;5076922;28;20468;-78
2023/02/21 14:31:48;;;;;;;0.77;0.30;;;14.90;56.00;;;;;;5077024;28;20893;-77
2023/02/21 14:34:21;;;;;;;0.30;0.30;;;14.70;56.00;;;;;;5077663;28;20460;-80
2023/02/21 14:36:50;;;;;;;1.13;0.30;;;14.70;57.40;;;;;;5076928;28;20949;-78
2023/02/21 14:39:19;;;;;;;1.07;0.40;;;14.60;57.60;;;;;;5076521;28;20426;-78
2023/02/21 14:42:01;;;;;;;0.60;0.40;;;14.50;59.30;;;;;;5076840;28;20425;-78
2023/02/21 14:44:34;;;;;;;0.40;0.33;;;14.50;57.40;;;;;;5076812;28;20425;-77
2023/02/21 14:47:31;;;;;;;0.30;0.30;;;14.50;58.30;;;;;;5076577;28;20493;-78
2023/02/21 14:50:12;;;;;;;0.40;0.30;;;14.40;57.90;;;;;;5076827;28;20987;-78
2023/02/21 14:53:26;;;;;;;0.40;0.40;;;14.40;61.00;;;;;;5076385;28;20429;-78
2023/02/21 14:56:07;;;;;;;0.30;0.30;;;14.30;60.80;;;;;;5011622;28;20458;-78
2023/02/21 14:59:05;;;;;;;0.30;0.30;;;14.20;62.60;;;;;;5070586;28;20999;-78
2023/02/21 15:01:45;;;;;;;0.30;0.30;;;14.10;62.60;;;;;;5076174;28;20472;-78
2023/02/21 15:04:19;;;;;;;0.60;0.30;;;14.10;64.10;;;;;;5076634;28;20425;-76
2023/02/21 15:06:57;;;;;;;0.30;0.30;;;14.10;64.00;;;;;;5076662;28;20531;-78
2023/02/21 15:09:23;;;;;;;0.40;0.30;;;14.00;65.70;;;;;;5076818;28;20924;-79
2023/02/21 15:11:51;;;;;;;0.40;0.30;;;13.90;66.80;;;;;;5077122;28;20570;-78
2023/02/21 15:14:23;;;;;;;0.37;0.27;;;13.80;67.90;;;;;;5077005;28;20456;-78
2023/02/21 15:16:53;;;;;;;0.30;0.20;;;13.70;67.80;;;;;;5077429;28;20461;-79
2023/02/21 15:19:25;;;;;;;0.40;0.37;;;13.60;67.10;;;;;;5077177;28;20464;-78
2023/02/21 15:22:15;;;;;;;0.40;0.30;;;13.60;67.90;;;;;;5076562;28;20434;-79
2023/02/21 15:24:42;;;;;;;0.40;0.30;;;13.60;69.40;;;;;;5069023;28;20457;-78
2023/02/21 15:27:11;;;;;;;0.30;0.20;;;13.50;69.30;;;;;;5076220;28;20478;-80
2023/02/21 15:29:38;;;;;;;0.30;0.20;;;13.50;70.40;;;;;;5075969;28;20434;-80
2023/02/21 15:32:05;;;;;;;0.30;0.30;;;13.40;71.20;;;;;;5074497;28;20969;-81